createdAt,value
2019-03-09T00:00:11.478Z,78.16
2019-03-09T00:02:38.001Z,78.41
2019-03-09T00:05:04.704Z,78.33
2019-03-09T00:07:31.220Z,78.50
2019-03-09T00:09:57.830Z,79.11
2019-03-09T00:12:24.460Z,79.13
2019-03-09T00:14:51.123Z,79.70
2019-03-09T00:17:17.705Z,79.77
2019-03-09T00:19:44.204Z,79.91
2019-03-09T00:22:11.260Z,80.34
2019-03-09T00:24:55.407Z,80.25
2019-03-09T00:27:40.348Z,80.43
2019-03-09T00:30:33.712Z,80.71
2019-03-09T00:33:00.216Z,80.21
2019-03-09T00:35:26.794Z,80.04
2019-03-09T00:37:53.438Z,79.89
2019-03-09T00:40:20.400Z,79.72
2019-03-09T00:42:47.091Z,79.51
2019-03-09T00:45:13.748Z,79.58
2019-03-09T00:47:41.638Z,79.67
2019-03-09T00:50:08.784Z,79.72
2019-03-09T00:52:35.406Z,79.73
2019-03-09T00:55:02.480Z,79.96
2019-03-09T00:57:29.001Z,79.37
2019-03-09T00:59:56.532Z,79.21
2019-03-09T01:02:23.597Z,78.71
2019-03-09T01:04:50.162Z,78.73
2019-03-09T01:07:16.825Z,78.98
2019-03-09T01:09:43.362Z,78.85
2019-03-09T01:12:10.027Z,78.83
2019-03-09T01:14:36.670Z,78.78
2019-03-09T01:17:03.353Z,78.60
2019-03-09T01:19:29.987Z,78.75
2019-03-09T01:21:56.753Z,78.74
2019-03-09T01:24:23.277Z,78.69
2019-03-09T01:26:49.975Z,78.65
2019-03-09T01:29:16.611Z,78.51
2019-03-09T01:31:43.250Z,78.42
2019-03-09T01:34:09.930Z,78.14
2019-03-09T01:36:36.545Z,78.62
2019-03-09T01:39:04.483Z,79.33
2019-03-09T01:41:31.060Z,79.87
2019-03-09T01:43:57.775Z,80.40
2019-03-09T01:46:24.516Z,80.82
2019-03-09T01:48:51.165Z,81.44
2019-03-09T01:51:17.704Z,81.73
2019-03-09T01:53:44.339Z,82.08
2019-03-09T01:56:10.966Z,82.27
2019-03-09T01:58:37.623Z,82.72
2019-03-09T02:01:04.392Z,82.78
2019-03-09T02:03:30.957Z,83.11
2019-03-09T02:05:57.630Z,83.57
2019-03-09T02:08:24.277Z,83.73
2019-03-09T02:10:50.953Z,83.97
2019-03-09T02:13:17.631Z,83.98
2019-03-09T02:15:44.297Z,83.96
2019-03-09T02:18:10.969Z,83.89
2019-03-09T02:20:37.522Z,84.23
2019-03-09T02:23:04.169Z,84.44
2019-03-09T02:25:30.806Z,84.67
2019-03-09T02:27:57.425Z,84.68
2019-03-09T02:30:24.112Z,84.80
2019-03-09T02:32:50.845Z,84.79
2019-03-09T02:35:17.596Z,84.96
2019-03-09T02:37:44.264Z,85.04
2019-03-09T02:40:19.921Z,85.43
2019-03-09T02:42:46.533Z,85.49
2019-03-09T02:45:14.547Z,85.56
2019-03-09T02:47:41.265Z,85.78
2019-03-09T02:50:09.330Z,85.84
2019-03-09T02:52:35.953Z,85.91
2019-03-09T02:55:02.865Z,85.79
2019-03-09T02:57:29.728Z,85.88
2019-03-09T02:59:56.413Z,85.91
2019-03-09T03:02:29.468Z,86.08
2019-03-09T03:04:56.007Z,86.12
2019-03-09T03:07:22.634Z,86.03
2019-03-09T03:09:49.250Z,86.07
2019-03-09T03:12:16.064Z,85.93
2019-03-09T03:14:42.595Z,85.97
2019-03-09T03:17:09.383Z,85.76
2019-03-09T03:19:35.925Z,85.56
2019-03-09T03:22:02.732Z,85.48
2019-03-09T03:24:29.390Z,85.64
2019-03-09T03:26:56.090Z,85.47
2019-03-09T03:29:22.603Z,85.42
2019-03-09T03:31:49.140Z,85.30
2019-03-09T03:34:15.966Z,85.42
2019-03-09T03:36:42.499Z,85.33
2019-03-09T03:39:09.312Z,85.31
2019-03-09T03:41:35.984Z,85.35
2019-03-09T03:44:02.699Z,85.26
2019-03-09T03:46:29.330Z,85.42
2019-03-09T03:48:55.973Z,85.65
2019-03-09T03:51:22.600Z,85.55
2019-03-09T03:53:49.203Z,85.70
2019-03-09T03:56:15.744Z,85.85
2019-03-09T03:58:42.502Z,85.85
2019-03-09T04:01:09.051Z,85.96
2019-03-09T04:03:35.570Z,86.01
2019-03-09T04:06:02.222Z,86.01
2019-03-09T04:08:28.956Z,86.03
2019-03-09T04:10:55.601Z,85.65
2019-03-09T04:13:22.246Z,85.79
2019-03-09T04:15:49.100Z,85.64
2019-03-09T04:18:15.613Z,85.56
2019-03-09T04:20:42.269Z,85.64
2019-03-09T04:23:08.974Z,85.46
2019-03-09T04:25:35.614Z,85.60
2019-03-09T04:28:02.332Z,85.27
2019-03-09T04:30:28.954Z,85.28
2019-03-09T04:32:55.618Z,85.30
2019-03-09T04:35:22.278Z,85.28
2019-03-09T04:37:48.799Z,85.18
2019-03-09T04:40:15.436Z,84.88
2019-03-09T04:42:41.972Z,84.61
2019-03-09T04:45:08.624Z,84.74
2019-03-09T04:47:35.202Z,84.80
2019-03-09T04:50:01.738Z,84.61
2019-03-09T04:52:28.562Z,84.65
2019-03-09T04:54:55.090Z,84.78
2019-03-09T04:57:21.899Z,84.68
2019-03-09T04:59:48.544Z,84.38
2019-03-09T05:02:15.236Z,83.87
2019-03-09T05:04:49.371Z,83.63
2019-03-09T05:07:30.923Z,83.21
2019-03-09T05:10:28.065Z,82.91
2019-03-09T05:12:58.348Z,82.48
2019-03-09T05:15:25.192Z,81.70
2019-03-09T05:17:51.725Z,81.59
2019-03-09T05:20:18.429Z,80.97
2019-03-09T05:22:44.957Z,80.65
2019-03-09T05:25:11.803Z,80.35
2019-03-09T05:27:38.332Z,80.12
2019-03-09T05:30:06.652Z,80.27
2019-03-09T05:32:33.214Z,80.06
2019-03-09T05:34:59.867Z,79.26
2019-03-09T05:37:26.564Z,78.75
2019-03-09T05:39:53.143Z,78.09
2019-03-09T05:42:19.667Z,77.65
2019-03-09T05:44:46.196Z,77.35
2019-03-09T05:47:12.832Z,77.34
2019-03-09T05:49:39.382Z,77.21
2019-03-09T05:52:32.231Z,76.88
2019-03-09T05:55:13.607Z,76.55
2019-03-09T05:57:40.239Z,76.79
2019-03-09T06:00:07.803Z,76.15
2019-03-09T06:02:34.566Z,75.91
2019-03-09T06:05:01.347Z,76.28
2019-03-09T06:07:28.051Z,76.46
2019-03-09T06:09:54.595Z,77.21
2019-03-09T06:12:21.223Z,77.75
2019-03-09T06:14:47.755Z,78.34
2019-03-09T06:17:14.295Z,77.86
2019-03-09T06:19:41.025Z,77.99
2019-03-09T06:22:07.566Z,77.65
2019-03-09T06:24:34.302Z,77.31
2019-03-09T06:27:00.847Z,77.33
2019-03-09T06:29:27.507Z,77.07
2019-03-09T06:32:32.392Z,76.62
2019-03-09T06:34:59.001Z,75.92
2019-03-09T06:37:25.525Z,75.03
2019-03-09T06:39:53.825Z,74.59
2019-03-09T06:42:38.125Z,73.97
2019-03-09T06:45:07.817Z,73.76
2019-03-09T06:47:34.483Z,73.41
2019-03-09T06:50:01.273Z,73.49
2019-03-09T06:52:27.876Z,73.39
2019-03-09T06:54:54.413Z,73.70
2019-03-09T06:57:20.953Z,73.91
2019-03-09T06:59:47.591Z,74.58
2019-03-09T07:02:15.404Z,74.67
2019-03-09T07:04:42.016Z,75.36
2019-03-09T07:07:08.712Z,74.86
2019-03-09T07:09:35.266Z,74.76
2019-03-09T07:12:01.814Z,73.58
2019-03-09T07:15:16.055Z,73.87
2019-03-09T07:17:43.171Z,74.24
2019-03-09T07:20:12.963Z,73.67
2019-03-09T07:22:38.455Z,74.31
2019-03-09T07:25:05.979Z,73.63
2019-03-09T07:27:32.560Z,75.31
2019-03-09T07:30:00.315Z,75.83
2019-03-09T07:32:27.155Z,76.80
2019-03-09T07:34:53.813Z,75.97
2019-03-09T07:37:20.508Z,75.06
2019-03-09T07:39:47.221Z,75.04
2019-03-09T07:42:13.780Z,74.05
2019-03-09T07:44:40.428Z,73.90
2019-03-09T07:47:07.170Z,72.68
2019-03-09T07:49:33.966Z,73.22
2019-03-09T07:52:32.951Z,72.89
2019-03-09T07:54:59.614Z,72.32
2019-03-09T07:57:26.254Z,71.83
2019-03-09T07:59:52.951Z,71.30
2019-03-09T08:02:20.730Z,71.25
2019-03-09T08:04:47.265Z,71.07
2019-03-09T08:07:14.893Z,70.71
2019-03-09T08:09:41.678Z,71.13
2019-03-09T08:12:08.511Z,71.20
2019-03-09T08:14:35.240Z,70.90
2019-03-09T08:17:01.931Z,71.71
2019-03-09T08:19:28.481Z,71.31
2019-03-09T08:21:55.169Z,71.17
2019-03-09T08:24:22.035Z,71.24
2019-03-09T08:26:48.627Z,71.42
2019-03-09T08:29:15.274Z,71.20
2019-03-09T08:31:41.960Z,71.57
2019-03-09T08:34:08.651Z,71.08
2019-03-09T08:36:35.430Z,70.17
2019-03-09T08:39:03.796Z,69.87
2019-03-09T08:41:32.159Z,68.67
2019-03-09T08:43:58.770Z,67.98
2019-03-09T08:46:25.318Z,66.99
2019-03-09T08:48:51.956Z,66.13
2019-03-09T08:51:18.774Z,64.89
2019-03-09T08:53:45.368Z,65.00
2019-03-09T08:56:11.927Z,64.96
2019-03-09T08:58:38.764Z,64.13
2019-03-09T09:01:05.373Z,63.99
2019-03-09T09:03:35.316Z,65.06
2019-03-09T09:06:02.162Z,65.45
2019-03-09T09:08:28.950Z,65.33
2019-03-09T09:10:55.793Z,65.25
2019-03-09T09:13:22.339Z,66.15
2019-03-09T09:15:56.832Z,65.91
2019-03-09T09:18:23.430Z,66.46
2019-03-09T09:20:50.182Z,65.03
2019-03-09T09:23:16.847Z,64.35
2019-03-09T09:25:43.829Z,64.00
2019-03-09T09:28:10.582Z,64.22
2019-03-09T09:30:37.260Z,64.85
2019-03-09T09:33:03.919Z,61.53
2019-03-09T09:35:30.443Z,58.87
2019-03-09T09:37:57.165Z,60.43
2019-03-09T09:40:24.009Z,62.45
2019-03-09T09:42:50.864Z,60.73
2019-03-09T09:45:17.657Z,60.03
2019-03-09T09:47:44.440Z,58.45
2019-03-09T09:50:11.247Z,59.25
2019-03-09T09:52:38.004Z,59.26
2019-03-09T09:55:06.853Z,59.57
2019-03-09T09:57:33.590Z,60.86
2019-03-09T10:00:00.136Z,60.30
2019-03-09T10:02:26.835Z,60.04
2019-03-09T10:04:53.551Z,61.67
2019-03-09T10:07:20.167Z,60.93
2019-03-09T10:09:46.765Z,62.68
2019-03-09T10:12:13.411Z,62.89
2019-03-09T10:14:40.172Z,64.53
2019-03-09T10:17:06.722Z,64.84
2019-03-09T10:19:33.588Z,64.16
2019-03-09T10:22:00.123Z,64.31
2019-03-09T10:24:26.906Z,63.91
2019-03-09T10:26:53.464Z,61.89
2019-03-09T10:29:20.351Z,60.46
2019-03-09T10:31:46.876Z,58.55
2019-03-09T10:34:13.582Z,57.99
2019-03-09T10:36:40.127Z,55.97
2019-03-09T10:39:06.786Z,56.26
2019-03-09T10:41:33.430Z,56.38
2019-03-09T10:44:00.005Z,55.77
2019-03-09T10:46:26.646Z,54.22
2019-03-09T10:48:53.281Z,53.76
2019-03-09T10:51:19.914Z,52.76
2019-03-09T10:53:46.477Z,52.31
2019-03-09T10:56:13.218Z,50.85
2019-03-09T10:58:39.951Z,51.07
2019-03-09T11:01:06.596Z,49.99
2019-03-09T11:03:33.228Z,50.08
2019-03-09T11:05:59.782Z,50.56
2019-03-09T11:08:26.431Z,51.49
2019-03-09T11:10:53.108Z,52.14
2019-03-09T11:13:19.829Z,53.75
2019-03-09T11:15:46.503Z,54.27
2019-03-09T11:18:13.165Z,55.10
2019-03-09T11:20:39.975Z,57.46
2019-03-09T11:23:06.488Z,56.60
2019-03-09T11:25:33.070Z,57.16
2019-03-09T11:28:06.027Z,57.46
2019-03-09T11:30:32.567Z,58.26
2019-03-09T11:32:59.206Z,58.48
2019-03-09T11:35:25.874Z,58.32
2019-03-09T11:37:52.592Z,58.38
2019-03-09T11:40:19.259Z,58.94
2019-03-09T11:42:45.911Z,59.68
2019-03-09T11:45:12.967Z,58.66
2019-03-09T11:47:39.493Z,58.59
2019-03-09T11:50:06.584Z,58.31
2019-03-09T11:52:33.338Z,58.83
2019-03-09T11:55:00.049Z,57.35
2019-03-09T11:57:26.809Z,58.29
2019-03-09T11:59:53.455Z,58.27
2019-03-09T12:02:20.180Z,57.36
2019-03-09T12:04:47.372Z,57.08
2019-03-09T12:07:14.198Z,56.19
2019-03-09T12:09:41.058Z,56.10
2019-03-09T12:12:09.711Z,54.85
2019-03-09T12:14:36.672Z,54.08
2019-03-09T12:17:03.396Z,52.66
2019-03-09T12:19:29.967Z,53.24
2019-03-09T12:21:56.609Z,53.36
2019-03-09T12:24:23.140Z,53.14
2019-03-09T12:26:49.879Z,53.07
2019-03-09T12:29:16.470Z,52.61
2019-03-09T12:31:43.124Z,51.65
2019-03-09T12:34:09.799Z,51.10
2019-03-09T12:36:36.476Z,51.38
2019-03-09T12:39:05.702Z,50.24
2019-03-09T12:41:32.269Z,50.23
2019-03-09T12:43:58.803Z,51.48
2019-03-09T12:46:25.449Z,52.93
2019-03-09T12:48:52.070Z,54.10
2019-03-09T12:51:19.033Z,54.98
2019-03-09T12:53:45.673Z,55.85
2019-03-09T12:56:12.360Z,56.50
2019-03-09T12:58:39.066Z,56.25
2019-03-09T13:01:05.670Z,56.28
2019-03-09T13:03:32.517Z,54.74
2019-03-09T13:06:00.186Z,54.23
2019-03-09T13:08:27.020Z,53.13
2019-03-09T13:10:55.804Z,52.00
2019-03-09T13:13:22.214Z,51.46
2019-03-09T13:15:48.935Z,51.41
2019-03-09T13:18:15.453Z,51.40
2019-03-09T13:20:43.448Z,51.62
2019-03-09T13:23:10.549Z,52.65
2019-03-09T13:25:38.784Z,52.89
2019-03-09T13:28:05.706Z,52.80
2019-03-09T13:30:32.268Z,53.20
2019-03-09T13:32:59.007Z,52.69
2019-03-09T13:35:25.564Z,52.81
2019-03-09T13:37:54.310Z,52.90
2019-03-09T13:40:21.015Z,51.87
2019-03-09T13:42:47.538Z,52.08
2019-03-09T13:45:14.558Z,51.92
2019-03-09T13:47:43.418Z,51.15
2019-03-09T13:50:10.061Z,50.95
2019-03-09T13:52:36.885Z,50.82
2019-03-09T13:55:03.923Z,51.00
2019-03-09T13:57:30.554Z,50.80
2019-03-09T13:59:57.212Z,50.21
2019-03-09T14:02:23.904Z,49.76
2019-03-09T14:04:50.435Z,48.82
2019-03-09T14:07:17.069Z,48.14
2019-03-09T14:09:43.870Z,48.25
2019-03-09T14:12:10.393Z,47.99
2019-03-09T14:14:37.095Z,47.35
2019-03-09T14:17:03.851Z,47.50
2019-03-09T14:19:30.537Z,47.21
2019-03-09T14:22:04.147Z,47.74
2019-03-09T14:24:30.680Z,48.43
2019-03-09T14:26:57.594Z,48.60
2019-03-09T14:29:25.255Z,49.03
2019-03-09T14:31:52.005Z,49.32
2019-03-09T14:34:18.652Z,49.86
2019-03-09T14:36:45.176Z,50.42
2019-03-09T14:39:11.992Z,50.66
2019-03-09T14:41:38.656Z,51.11
2019-03-09T14:44:05.379Z,51.20
2019-03-09T14:46:32.145Z,51.29
2019-03-09T14:48:58.795Z,51.41
2019-03-09T14:51:25.578Z,51.74
2019-03-09T14:53:52.263Z,51.86
2019-03-09T14:56:18.950Z,52.37
2019-03-09T14:58:45.646Z,52.89
2019-03-09T15:01:12.395Z,53.24
2019-03-09T15:03:38.913Z,53.34
2019-03-09T15:06:05.727Z,52.95
2019-03-09T15:08:32.247Z,53.46
2019-03-09T15:10:58.961Z,53.56
2019-03-09T15:13:25.661Z,53.83
2019-03-09T15:15:52.351Z,53.46
2019-03-09T15:18:18.907Z,53.43
2019-03-09T15:20:45.469Z,53.66
2019-03-09T15:23:12.115Z,53.54
2019-03-09T15:25:38.862Z,53.09
2019-03-09T15:28:05.503Z,52.68
2019-03-09T15:30:32.138Z,53.26
2019-03-09T15:32:58.813Z,53.83
2019-03-09T15:35:25.356Z,53.63
2019-03-09T15:37:52.198Z,54.13
2019-03-09T15:40:18.942Z,54.02
2019-03-09T15:42:45.674Z,54.07
2019-03-09T15:45:13.598Z,54.59
2019-03-09T15:47:40.235Z,55.72
2019-03-09T15:50:08.026Z,57.03
2019-03-09T15:52:34.702Z,58.25
2019-03-09T15:55:01.258Z,59.44
2019-03-09T15:57:27.917Z,60.18
2019-03-09T15:59:54.700Z,60.30
2019-03-09T16:02:21.462Z,61.02
2019-03-09T16:04:48.228Z,61.31
2019-03-09T16:07:14.835Z,61.70
2019-03-09T16:09:41.490Z,61.76
2019-03-09T16:12:08.464Z,62.63
2019-03-09T16:14:35.018Z,62.70
2019-03-09T16:17:05.546Z,62.52
2019-03-09T16:19:32.191Z,63.11
2019-03-09T16:21:58.994Z,63.36
2019-03-09T16:24:25.715Z,63.38
2019-03-09T16:26:52.448Z,63.84
2019-03-09T16:29:18.989Z,64.29
2019-03-09T16:31:45.519Z,64.56
2019-03-09T16:34:12.094Z,64.68
2019-03-09T16:36:38.844Z,65.21
2019-03-09T16:39:05.855Z,65.48
2019-03-09T16:41:33.253Z,65.63
2019-03-09T16:43:59.834Z,65.88
2019-03-09T16:46:26.522Z,66.05
2019-03-09T16:48:53.367Z,66.02
2019-03-09T16:51:19.934Z,66.20
2019-03-09T16:53:46.463Z,66.25
2019-03-09T16:56:13.018Z,66.60
2019-03-09T16:58:39.613Z,66.64
2019-03-09T17:01:06.312Z,66.92
2019-03-09T17:03:32.885Z,67.03
2019-03-09T17:05:59.678Z,66.96
2019-03-09T17:08:26.477Z,67.09
2019-03-09T17:10:53.159Z,67.10
2019-03-09T17:13:19.714Z,67.22
2019-03-09T17:15:46.355Z,67.30
2019-03-09T17:18:12.891Z,67.42
2019-03-09T17:20:39.530Z,67.67
2019-03-09T17:23:06.092Z,67.93
2019-03-09T17:25:32.811Z,68.21
2019-03-09T17:27:59.702Z,68.58
2019-03-09T17:30:26.355Z,68.60
2019-03-09T17:32:53.077Z,68.75
2019-03-09T17:35:19.953Z,68.57
2019-03-09T17:37:46.821Z,68.64
2019-03-09T17:40:13.504Z,68.90
2019-03-09T17:42:40.060Z,68.92
2019-03-09T17:45:10.016Z,69.05
2019-03-09T17:47:36.795Z,69.25
2019-03-09T17:50:06.717Z,69.00
2019-03-09T17:52:33.387Z,68.86
2019-03-09T17:55:00.057Z,68.75
2019-03-09T17:57:26.691Z,68.67
2019-03-09T17:59:53.288Z,68.76
2019-03-09T18:02:19.938Z,68.61
2019-03-09T18:04:46.586Z,68.71
2019-03-09T18:07:13.259Z,68.43
2019-03-09T18:09:39.899Z,67.27
2019-03-09T18:12:06.789Z,67.27
2019-03-09T18:14:33.439Z,67.07
2019-03-09T18:17:00.121Z,66.72
2019-03-09T18:19:26.669Z,65.44
2019-03-09T18:21:53.354Z,65.40
2019-03-09T18:24:19.987Z,65.18
2019-03-09T18:26:46.821Z,65.25
2019-03-09T18:29:13.490Z,64.85
2019-03-09T18:31:40.038Z,65.00
2019-03-09T18:34:06.717Z,63.89
2019-03-09T18:36:33.412Z,63.79
2019-03-09T18:39:00.217Z,63.68
2019-03-09T18:41:26.850Z,62.87
2019-03-09T18:43:53.618Z,62.62
2019-03-09T18:46:20.147Z,62.74
2019-03-09T18:48:46.838Z,61.88
2019-03-09T18:51:13.538Z,61.76
2019-03-09T18:53:40.301Z,61.47
2019-03-09T18:56:06.863Z,61.34
2019-03-09T18:58:33.418Z,60.85
2019-03-09T19:01:00.080Z,60.88
2019-03-09T19:03:26.725Z,60.44
2019-03-09T19:05:53.399Z,60.36
2019-03-09T19:08:20.050Z,60.02
2019-03-09T19:10:46.751Z,59.55
2019-03-09T19:13:13.448Z,59.65
2019-03-09T19:15:40.196Z,59.38
2019-03-09T19:18:06.898Z,59.26
2019-03-09T19:20:33.575Z,59.43
2019-03-09T19:23:00.110Z,59.56
2019-03-09T19:25:26.802Z,59.19
2019-03-09T19:27:53.409Z,59.63
2019-03-09T19:30:20.075Z,59.29
2019-03-09T19:32:46.837Z,59.63
2019-03-09T19:35:13.485Z,59.64
2019-03-09T19:37:40.132Z,59.56
2019-03-09T19:40:08.825Z,59.51
2019-03-09T19:42:35.527Z,59.59
2019-03-09T19:45:02.298Z,59.92
2019-03-09T19:47:28.952Z,59.49
2019-03-09T19:49:55.590Z,59.50
2019-03-09T19:52:22.317Z,59.62
2019-03-09T19:54:49.155Z,59.51
2019-03-09T19:57:16.029Z,59.17
2019-03-09T19:59:42.879Z,59.31
2019-03-09T20:02:09.690Z,59.35
2019-03-09T20:04:36.430Z,59.25
2019-03-09T20:07:03.233Z,59.60
2019-03-09T20:09:30.003Z,59.66
2019-03-09T20:11:56.698Z,59.81
2019-03-09T20:14:23.433Z,59.54
2019-03-09T20:16:50.168Z,59.58
2019-03-09T20:19:16.897Z,59.67
2019-03-09T20:21:43.607Z,59.92
2019-03-09T20:24:10.365Z,59.73
2019-03-09T20:26:37.080Z,59.90
2019-03-09T20:29:03.794Z,59.16
2019-03-09T20:31:30.447Z,58.90
2019-03-09T20:33:57.123Z,58.91
2019-03-09T20:36:24.048Z,59.05
2019-03-09T20:38:50.737Z,58.60
2019-03-09T20:41:17.617Z,58.62
2019-03-09T20:43:44.160Z,58.64
2019-03-09T20:46:10.846Z,58.43
2019-03-09T20:48:37.600Z,58.58
2019-03-09T20:51:04.339Z,58.74
2019-03-09T20:53:30.972Z,58.96
2019-03-09T20:55:57.528Z,59.22
2019-03-09T20:58:24.288Z,59.41
2019-03-09T21:00:51.049Z,59.18
2019-03-09T21:03:17.956Z,59.48
2019-03-09T21:05:44.501Z,59.21
2019-03-09T21:08:11.173Z,59.03
2019-03-09T21:10:37.835Z,58.91
2019-03-09T21:13:05.805Z,59.05
2019-03-09T21:15:32.662Z,58.98
2019-03-09T21:17:59.484Z,59.48
2019-03-09T21:20:26.403Z,59.76
2019-03-09T21:22:52.983Z,59.63
2019-03-09T21:25:19.721Z,59.85
2019-03-09T21:27:46.772Z,59.84
2019-03-09T21:30:13.774Z,59.72
2019-03-09T21:32:40.555Z,60.07
2019-03-09T21:35:08.341Z,60.27
2019-03-09T21:37:35.206Z,60.36
2019-03-09T21:40:02.194Z,60.49
2019-03-09T21:42:28.909Z,60.39
2019-03-09T21:44:55.816Z,60.08
2019-03-09T21:47:22.750Z,60.14
2019-03-09T21:49:49.308Z,59.99
2019-03-09T21:52:16.765Z,59.80
2019-03-09T21:54:43.473Z,59.88
2019-03-09T21:57:10.235Z,59.82
2019-03-09T21:59:37.542Z,60.04
2019-03-09T22:02:05.501Z,60.20
2019-03-09T22:04:32.121Z,60.39
2019-03-09T22:06:58.774Z,60.80
2019-03-09T22:09:25.351Z,60.89
2019-03-09T22:11:52.115Z,61.11
2019-03-09T22:14:19.402Z,60.99
2019-03-09T22:16:55.975Z,61.13
2019-03-09T22:19:14.997Z,61.33
2019-03-09T22:21:41.892Z,61.21
2019-03-09T22:24:08.720Z,60.83
2019-03-09T22:29:15.540Z,60.62
2019-03-09T22:31:42.647Z,60.48
2019-03-09T22:34:09.420Z,60.58
2019-03-09T22:36:36.264Z,60.77
2019-03-09T22:39:04.231Z,61.09
2019-03-09T22:41:30.869Z,60.95
2019-03-09T22:43:58.056Z,60.91
2019-03-09T22:46:24.847Z,60.73
2019-03-09T22:48:53.034Z,61.12
2019-03-09T22:51:20.393Z,61.26
2019-03-09T22:53:46.981Z,61.13
2019-03-09T22:56:14.296Z,61.09
2019-03-09T22:58:40.983Z,60.84
2019-03-09T23:01:07.835Z,60.87
2019-03-09T23:03:34.530Z,60.83
2019-03-09T23:06:01.310Z,60.56
2019-03-09T23:08:27.855Z,60.72
2019-03-09T23:10:54.532Z,60.56
2019-03-09T23:13:21.431Z,60.61
2019-03-09T23:15:48.292Z,60.74
2019-03-09T23:18:16.069Z,60.58
2019-03-09T23:20:42.813Z,60.61
2019-03-09T23:23:09.623Z,60.56
2019-03-09T23:25:36.257Z,60.67
2019-03-09T23:28:03.073Z,60.97
2019-03-09T23:30:29.964Z,60.99
2019-03-09T23:32:56.754Z,61.00
2019-03-09T23:35:23.677Z,61.14
2019-03-09T23:37:50.443Z,61.29
2019-03-09T23:40:17.539Z,61.36
2019-03-09T23:42:44.269Z,61.32
2019-03-09T23:45:11.570Z,61.29
2019-03-09T23:47:38.247Z,61.25
2019-03-09T23:50:06.317Z,61.60
2019-03-09T23:52:32.986Z,61.77
2019-03-09T23:54:59.568Z,61.87
2019-03-09T23:57:26.199Z,61.93
2019-03-09T23:59:52.838Z,62.06
